createdAt,value
2023-02-18T00:01:04.714Z,22.60
2023-02-18T00:03:32.379Z,13.98
2023-02-18T00:06:00.157Z,18.58
2023-02-18T00:08:27.850Z,20.15
2023-02-18T00:10:55.538Z,20.75
2023-02-18T00:13:23.250Z,18.75
2023-02-18T00:15:52.504Z,12.15
2023-02-18T00:18:20.276Z,19.30
2023-02-18T00:20:48.335Z,13.32
2023-02-18T00:23:16.054Z,12.75
2023-02-18T00:25:44.322Z,16.77
2023-02-18T00:28:12.142Z,20.02
2023-02-18T00:30:41.286Z,18.30
2023-02-18T00:33:10.433Z,17.85
2023-02-18T00:35:38.645Z,13.35
2023-02-18T00:38:06.471Z,15.32
2023-02-18T00:40:34.145Z,15.85
2023-02-18T00:43:02.010Z,16.80
2023-02-18T00:45:29.739Z,18.40
2023-02-18T00:47:57.637Z,21.10
2023-02-18T00:50:26.709Z,12.88
2023-02-18T00:52:54.469Z,16.33
2023-02-18T00:55:22.192Z,17.67
2023-02-18T00:57:50.238Z,19.60
2023-02-18T01:00:18.582Z,19.13
2023-02-18T01:02:47.439Z,18.10
2023-02-18T01:05:15.229Z,17.30
2023-02-18T01:07:44.276Z,26.05
2023-02-18T01:10:12.366Z,15.30
2023-02-18T01:12:40.088Z,17.38
2023-02-18T01:15:09.410Z,14.07
2023-02-18T01:17:37.235Z,18.45
2023-02-18T01:20:08.387Z,20.67
2023-02-18T01:22:36.045Z,22.40
2023-02-18T01:25:05.618Z,11.70
2023-02-18T01:27:33.500Z,12.70
2023-02-18T01:30:02.779Z,12.77
2023-02-18T01:32:31.041Z,18.55
2023-02-18T01:34:58.722Z,17.50
2023-02-18T01:37:28.687Z,12.02
2023-02-18T01:39:56.510Z,14.15
2023-02-18T01:42:29.010Z,12.43
2023-02-18T01:45:37.809Z,20.17
2023-02-18T01:48:08.521Z,16.63
2023-02-18T01:50:38.506Z,12.65
2023-02-18T01:53:06.998Z,18.90
2023-02-18T01:55:35.757Z,15.18
2023-02-18T01:58:05.372Z,16.85
2023-02-18T02:00:33.615Z,11.45
2023-02-18T02:03:01.375Z,15.88
2023-02-18T02:05:32.278Z,20.73
2023-02-18T02:08:00.576Z,15.13
2023-02-18T02:10:44.367Z,16.15
2023-02-18T02:13:18.469Z,21.60
2023-02-18T02:15:50.440Z,16.48
2023-02-18T02:18:36.456Z,19.80
2023-02-18T02:21:42.949Z,18.60
2023-02-18T02:24:26.011Z,18.95
2023-02-18T02:27:06.858Z,14.85
2023-02-18T02:30:14.588Z,18.42
2023-02-18T02:33:25.043Z,13.75
2023-02-18T02:35:58.480Z,16.40
2023-02-18T02:38:32.222Z,12.25
2023-02-18T02:41:09.461Z,8.10
2023-02-18T02:43:44.795Z,15.13
2023-02-18T02:46:18.956Z,19.02
2023-02-18T02:48:50.505Z,9.85
2023-02-18T02:51:25.245Z,16.17
2023-02-18T02:53:53.494Z,15.32
2023-02-18T02:56:22.919Z,9.70
2023-02-18T02:59:00.188Z,14.05
2023-02-18T03:01:37.872Z,13.00
2023-02-18T03:04:20.367Z,18.08
2023-02-18T03:07:03.238Z,12.68
2023-02-18T03:09:40.565Z,12.82
2023-02-18T03:12:16.324Z,12.27
2023-02-18T03:14:48.792Z,12.98
2023-02-18T03:17:23.556Z,13.13
2023-02-18T03:19:56.355Z,10.45
2023-02-18T03:22:28.655Z,13.40
2023-02-18T03:24:59.407Z,11.98
2023-02-18T03:27:29.977Z,10.15
2023-02-18T03:30:05.907Z,12.43
2023-02-18T03:32:35.540Z,9.68
2023-02-18T03:35:09.421Z,9.65
2023-02-18T03:37:40.782Z,11.93
2023-02-18T03:40:10.918Z,12.90
2023-02-18T03:42:38.847Z,13.27
2023-02-18T03:45:08.307Z,12.90
2023-02-18T03:47:36.223Z,14.60
2023-02-18T03:50:03.981Z,13.13
2023-02-18T03:52:33.041Z,9.60
2023-02-18T03:55:02.308Z,13.77
2023-02-18T03:57:31.095Z,8.52
2023-02-18T03:59:58.743Z,7.82
2023-02-18T04:02:26.654Z,9.60
2023-02-18T04:04:54.597Z,7.80
2023-02-18T04:07:22.378Z,7.40
2023-02-18T04:09:50.323Z,8.73
2023-02-18T04:12:19.347Z,9.73
2023-02-18T04:14:47.035Z,8.98
2023-02-18T04:17:14.833Z,5.95
2023-02-18T04:19:42.440Z,7.10
2023-02-18T04:22:10.117Z,4.25
2023-02-18T04:24:37.802Z,7.05
2023-02-18T04:27:05.499Z,3.20
2023-02-18T04:29:34.700Z,6.10
2023-02-18T04:32:02.614Z,6.78
2023-02-18T04:34:30.414Z,8.05
2023-02-18T04:36:58.112Z,5.25
2023-02-18T04:39:25.994Z,5.90
2023-02-18T04:41:53.982Z,7.43
2023-02-18T04:44:21.846Z,3.97
2023-02-18T04:46:51.318Z,7.25
2023-02-18T04:49:19.042Z,7.57
2023-02-18T04:51:46.751Z,8.88
2023-02-18T04:54:14.441Z,7.55
2023-02-18T04:56:42.091Z,9.15
2023-02-18T04:59:10.087Z,10.65
2023-02-18T05:01:37.919Z,6.05
2023-02-18T05:04:07.465Z,7.30
2023-02-18T05:06:35.311Z,11.65
2023-02-18T05:09:03.360Z,6.72
2023-02-18T05:11:30.979Z,6.40
2023-02-18T05:13:59.133Z,9.13
2023-02-18T05:16:27.733Z,10.30
2023-02-18T05:18:55.406Z,9.95
2023-02-18T05:21:24.423Z,9.38
2023-02-18T05:23:52.324Z,7.95
2023-02-18T05:26:20.042Z,8.52
2023-02-18T05:28:47.882Z,13.02
2023-02-18T05:31:15.852Z,13.27
2023-02-18T05:33:43.662Z,9.30
2023-02-18T05:36:11.448Z,11.95
2023-02-18T05:38:40.505Z,7.65
2023-02-18T05:41:08.199Z,10.10
2023-02-18T05:43:56.561Z,4.18
2023-02-18T05:46:24.379Z,5.88
2023-02-18T05:48:52.084Z,5.57
2023-02-18T05:51:19.829Z,4.60
2023-02-18T05:53:49.028Z,8.52
2023-02-18T05:56:16.748Z,6.68
2023-02-18T05:58:44.679Z,4.25
2023-02-18T06:01:12.637Z,10.27
2023-02-18T06:03:40.306Z,6.93
2023-02-18T06:06:09.472Z,8.13
2023-02-18T06:08:37.279Z,7.60
2023-02-18T06:11:06.432Z,8.38
2023-02-18T06:13:34.226Z,12.23
2023-02-18T06:16:01.903Z,6.95
2023-02-18T06:18:30.082Z,9.43
2023-02-18T06:20:57.975Z,6.97
2023-02-18T06:23:25.740Z,5.85
2023-02-18T06:25:53.486Z,10.63
2023-02-18T06:28:22.531Z,7.40
2023-02-18T06:30:50.847Z,7.28
2023-02-18T06:33:18.473Z,5.35
2023-02-18T06:35:54.001Z,5.50
2023-02-18T06:38:22.208Z,7.20
2023-02-18T06:40:50.382Z,10.95
2023-02-18T06:43:18.696Z,9.48
2023-02-18T06:45:49.350Z,6.28
2023-02-18T06:48:17.809Z,7.32
2023-02-18T06:50:47.885Z,5.05
2023-02-18T06:53:18.122Z,8.73
2023-02-18T06:55:46.700Z,7.70
2023-02-18T06:58:15.918Z,9.77
2023-02-18T07:00:44.709Z,7.18
2023-02-18T07:03:15.006Z,3.40
2023-02-18T07:05:42.929Z,4.35
2023-02-18T07:08:11.100Z,6.18
2023-02-18T07:10:39.104Z,3.42
2023-02-18T07:13:07.362Z,4.47
2023-02-18T07:15:35.233Z,4.55
2023-02-18T07:18:02.996Z,3.97
2023-02-18T07:20:32.066Z,3.13
2023-02-18T07:23:00.013Z,4.22
2023-02-18T07:25:27.954Z,2.40
2023-02-18T07:27:56.092Z,5.03
2023-02-18T07:30:23.951Z,3.88
2023-02-18T07:32:51.885Z,2.50
2023-02-18T07:35:24.407Z,3.33
2023-02-18T07:37:54.056Z,3.30
2023-02-18T07:40:22.912Z,4.00
2023-02-18T07:42:50.640Z,2.47
2023-02-18T07:45:20.159Z,5.20
2023-02-18T07:47:47.778Z,4.53
2023-02-18T07:50:15.558Z,3.70
2023-02-18T07:52:43.238Z,4.15
2023-02-18T07:55:12.273Z,5.40
2023-02-18T07:57:57.251Z,3.55
2023-02-18T08:00:25.597Z,3.30
2023-02-18T08:02:53.337Z,5.70
2023-02-18T08:05:21.341Z,4.07
2023-02-18T08:07:49.018Z,4.30
2023-02-18T08:10:18.355Z,2.95
2023-02-18T08:12:46.562Z,8.25
2023-02-18T08:15:14.583Z,2.95
2023-02-18T08:17:42.324Z,5.90
2023-02-18T08:20:11.609Z,8.57
2023-02-18T08:22:39.292Z,3.63
2023-02-18T08:25:08.330Z,4.03
2023-02-18T08:27:37.630Z,5.47
2023-02-18T08:30:06.288Z,5.55
2023-02-18T08:32:34.255Z,3.38
2023-02-18T08:35:02.692Z,4.25
2023-02-18T08:37:30.618Z,4.05
2023-02-18T08:40:18.765Z,3.95
2023-02-18T08:42:47.898Z,4.80
2023-02-18T08:45:15.584Z,5.28
2023-02-18T08:48:15.916Z,4.05
2023-02-18T08:50:31.566Z,4.75
2023-02-18T08:53:00.427Z,6.35
2023-02-18T08:55:28.193Z,3.72
2023-02-18T08:57:57.312Z,4.93
2023-02-18T09:00:25.374Z,7.57
2023-02-18T09:02:53.068Z,3.03
2023-02-18T09:05:20.913Z,3.90
2023-02-18T09:07:48.746Z,7.65
2023-02-18T09:10:16.877Z,4.80
2023-02-18T09:12:44.590Z,8.65
2023-02-18T09:15:13.730Z,4.53
2023-02-18T09:17:41.490Z,3.75
2023-02-18T09:20:10.215Z,4.13
2023-02-18T09:22:38.242Z,6.05
2023-02-18T09:25:07.258Z,5.03
2023-02-18T09:27:34.986Z,3.55
2023-02-18T09:30:03.408Z,5.13
2023-02-18T09:32:35.204Z,4.05
2023-02-18T09:35:03.868Z,5.38
2023-02-18T09:37:32.024Z,4.47
2023-02-18T09:39:59.968Z,4.78
2023-02-18T09:42:31.642Z,3.45
2023-02-18T09:45:02.086Z,3.45
2023-02-18T09:47:36.209Z,3.45
2023-02-18T09:50:07.066Z,5.00
2023-02-18T09:52:37.694Z,3.67
2023-02-18T09:55:17.614Z,8.18
2023-02-18T09:57:47.477Z,4.38
2023-02-18T10:00:19.244Z,6.00
2023-02-18T10:02:54.774Z,5.82
2023-02-18T10:05:23.449Z,3.13
2023-02-18T10:07:53.772Z,7.13
2023-02-18T10:10:28.586Z,4.35
2023-02-18T10:12:56.507Z,2.97
2023-02-18T10:15:30.520Z,3.92
2023-02-18T10:18:01.728Z,5.30
2023-02-18T10:20:31.265Z,6.00
2023-02-18T10:23:00.916Z,3.78
2023-02-18T10:25:29.450Z,2.10
2023-02-18T10:27:58.972Z,8.60
2023-02-18T10:30:32.210Z,6.32
2023-02-18T10:33:02.675Z,3.75
2023-02-18T10:35:32.699Z,3.63
2023-02-18T10:38:08.124Z,2.80
2023-02-18T10:40:43.972Z,3.45
2023-02-18T10:43:18.919Z,2.83
2023-02-18T10:45:50.587Z,5.93
2023-02-18T10:48:28.936Z,2.97
2023-02-18T10:50:57.053Z,4.07
2023-02-18T10:53:32.867Z,3.70
2023-02-18T10:56:00.817Z,1.88
2023-02-18T10:58:32.149Z,2.00
2023-02-18T11:01:04.689Z,4.45
2023-02-18T11:03:43.357Z,3.20
2023-02-18T11:06:21.432Z,2.20
2023-02-18T11:08:50.776Z,2.55
2023-02-18T11:11:23.640Z,2.60
2023-02-18T11:13:54.662Z,3.22
2023-02-18T11:16:23.666Z,3.72
2023-02-18T11:18:52.838Z,5.60
2023-02-18T11:21:26.650Z,3.17
2023-02-18T11:23:56.377Z,2.90
2023-02-18T11:26:28.534Z,4.03
2023-02-18T11:29:01.574Z,4.55
2023-02-18T11:31:38.313Z,4.25
2023-02-18T11:34:07.979Z,3.30
2023-02-18T11:36:39.583Z,3.30
2023-02-18T11:39:14.678Z,3.10
2023-02-18T11:41:44.340Z,3.95
2023-02-18T11:44:20.562Z,3.33
2023-02-18T11:46:58.188Z,2.67
2023-02-18T11:49:29.671Z,3.58
2023-02-18T11:52:05.927Z,3.70
2023-02-18T11:54:35.930Z,3.00
2023-02-18T11:57:05.785Z,5.25
2023-02-18T11:59:34.912Z,3.20
2023-02-18T12:02:12.291Z,3.50
2023-02-18T12:04:45.811Z,5.07
2023-02-18T12:07:18.484Z,3.55
2023-02-18T12:09:49.424Z,3.67
2023-02-18T12:12:19.536Z,3.13
2023-02-18T12:14:47.243Z,3.10
2023-02-18T12:17:31.183Z,3.40
2023-02-18T12:20:11.977Z,3.50
2023-02-18T12:22:43.722Z,3.10
2023-02-18T12:25:24.191Z,3.05
2023-02-18T12:27:58.494Z,2.55
2023-02-18T12:30:37.876Z,2.45
2023-02-18T12:33:09.551Z,1.88
2023-02-18T12:35:56.490Z,3.88
2023-02-18T12:38:45.683Z,2.67
2023-02-18T12:41:34.656Z,6.28
2023-02-18T12:44:08.937Z,2.55
2023-02-18T12:46:50.273Z,3.42
2023-02-18T12:49:41.647Z,2.80
2023-02-18T12:52:19.460Z,2.08
2023-02-18T12:55:09.945Z,2.25
2023-02-18T12:57:40.836Z,2.30
2023-02-18T13:00:22.058Z,1.73
2023-02-18T13:03:15.785Z,2.13
2023-02-18T13:05:46.531Z,7.00
2023-02-18T13:08:30.503Z,1.73
2023-02-18T13:11:06.360Z,2.08
2023-02-18T13:13:35.933Z,1.33
2023-02-18T13:16:06.003Z,2.30
2023-02-18T13:18:35.823Z,6.05
2023-02-18T13:21:06.231Z,1.80
2023-02-18T13:23:37.110Z,2.40
2023-02-18T13:26:07.171Z,4.00
2023-02-18T13:28:41.035Z,2.10
2023-02-18T13:31:30.081Z,2.40
2023-02-18T13:34:02.320Z,2.92
2023-02-18T13:36:38.068Z,2.55
2023-02-18T13:39:08.843Z,2.28
2023-02-18T13:41:38.831Z,2.00
2023-02-18T13:44:11.299Z,8.93
2023-02-18T13:46:49.293Z,2.60
2023-02-18T13:49:19.704Z,1.70
2023-02-18T13:51:48.781Z,1.05
2023-02-18T13:54:23.576Z,1.30
2023-02-18T13:56:55.427Z,0.60
2023-02-18T13:59:27.796Z,1.30
2023-02-18T14:01:55.542Z,0.88
2023-02-18T14:04:51.128Z,0.68
2023-02-18T14:07:39.239Z,0.65
2023-02-18T14:10:27.282Z,0.60
2023-02-18T14:13:24.982Z,15.90
2023-02-18T14:15:57.113Z,2.30
2023-02-18T14:18:30.621Z,1.35
2023-02-18T14:21:07.897Z,12.60
2023-02-18T14:23:41.279Z,0.50
2023-02-18T14:26:19.241Z,0.93
2023-02-18T14:28:54.566Z,4.22
2023-02-18T14:31:32.162Z,0.88
2023-02-18T14:34:21.721Z,1.63
2023-02-18T14:36:55.554Z,0.90
2023-02-18T14:39:36.149Z,3.25
2023-02-18T14:42:17.338Z,1.85
2023-02-18T14:44:56.456Z,2.00
2023-02-18T14:47:30.449Z,2.53
2023-02-18T14:49:59.799Z,5.95
2023-02-18T14:52:31.886Z,5.90
2023-02-18T14:55:02.480Z,1.73
2023-02-18T14:57:35.549Z,3.45
2023-02-18T15:00:03.610Z,1.83
2023-02-18T15:02:31.851Z,1.80
2023-02-18T15:05:14.181Z,1.60
2023-02-18T15:07:41.976Z,3.28
2023-02-18T15:10:15.966Z,2.17
2023-02-18T15:12:45.132Z,1.73
2023-02-18T15:15:15.962Z,10.80
2023-02-18T15:17:47.385Z,6.40
2023-02-18T15:20:15.609Z,11.13
2023-02-18T15:22:43.553Z,9.70
2023-02-18T15:25:13.680Z,14.27
2023-02-18T15:27:45.703Z,9.07
2023-02-18T15:30:25.795Z,6.60
2023-02-18T15:32:54.928Z,7.03
2023-02-18T15:35:24.114Z,9.95
2023-02-18T15:37:55.766Z,4.00
2023-02-18T15:40:25.797Z,4.90
2023-02-18T15:42:58.108Z,3.42
2023-02-18T15:45:31.802Z,2.33
2023-02-18T15:48:00.337Z,3.67
2023-02-18T15:50:30.248Z,2.20
2023-02-18T15:53:00.194Z,5.53
2023-02-18T15:55:31.344Z,2.28
2023-02-18T15:58:01.599Z,3.10
2023-02-18T16:00:33.583Z,2.78
2023-02-18T16:03:05.120Z,2.50
2023-02-18T16:05:33.076Z,2.50
2023-02-18T16:08:02.865Z,2.17
2023-02-18T16:10:44.788Z,3.10
2023-02-18T16:13:16.976Z,2.58
2023-02-18T16:15:47.943Z,2.95
2023-02-18T16:18:30.780Z,2.20
2023-02-18T16:21:01.690Z,2.42
2023-02-18T16:23:36.256Z,2.78
2023-02-18T16:26:29.267Z,2.22
2023-02-18T16:29:03.403Z,2.10
2023-02-18T16:31:32.905Z,2.15
2023-02-18T16:34:00.694Z,2.70
2023-02-18T16:36:29.002Z,2.97
2023-02-18T16:38:58.622Z,2.95
2023-02-18T16:41:26.400Z,3.05
2023-02-18T16:43:54.121Z,2.90
2023-02-18T16:46:23.917Z,3.60
2023-02-18T16:48:54.920Z,3.20
2023-02-18T16:51:24.757Z,3.60
2023-02-18T16:53:52.657Z,3.28
2023-02-18T16:56:22.612Z,3.08
2023-02-18T16:58:51.367Z,3.35
2023-02-18T17:01:24.186Z,3.17
2023-02-18T17:03:53.959Z,3.70
2023-02-18T17:06:21.868Z,3.72
2023-02-18T17:08:50.123Z,4.13
2023-02-18T17:11:23.658Z,4.82
2023-02-18T17:13:51.694Z,5.00
2023-02-18T17:16:20.087Z,5.45
2023-02-18T17:18:48.763Z,5.45
2023-02-18T17:21:19.643Z,4.90
2023-02-18T17:23:48.854Z,5.03
2023-02-18T17:26:21.532Z,5.40
2023-02-18T17:28:49.467Z,5.00
2023-02-18T17:31:19.769Z,4.65
2023-02-18T17:33:51.050Z,4.80
2023-02-18T17:36:20.663Z,5.22
2023-02-18T17:38:49.317Z,4.90
2023-02-18T17:41:17.243Z,5.82
2023-02-18T17:43:45.094Z,5.40
2023-02-18T17:46:14.265Z,5.30
2023-02-18T17:48:43.154Z,5.03
2023-02-18T17:51:23.322Z,4.38
2023-02-18T17:53:51.426Z,5.32
2023-02-18T17:56:19.079Z,4.85
2023-02-18T17:58:47.632Z,6.35
2023-02-18T18:01:15.736Z,4.60
2023-02-18T18:03:44.281Z,5.25
2023-02-18T18:06:17.340Z,4.60
2023-02-18T18:08:47.299Z,5.65
2023-02-18T18:11:17.326Z,5.47
2023-02-18T18:13:46.448Z,6.32
2023-02-18T18:16:16.159Z,6.13
2023-02-18T18:18:44.759Z,6.20
2023-02-18T18:21:18.880Z,6.72
2023-02-18T18:23:50.246Z,7.30
2023-02-18T18:26:18.342Z,8.80
2023-02-18T18:28:45.972Z,7.72
2023-02-18T18:31:15.979Z,6.88
2023-02-18T18:33:48.692Z,8.02
2023-02-18T18:36:17.170Z,10.13
2023-02-18T18:38:45.289Z,9.45
2023-02-18T18:41:17.013Z,8.50
2023-02-18T18:43:44.874Z,9.23
2023-02-18T18:46:12.918Z,9.55
2023-02-18T18:48:41.559Z,9.27
2023-02-18T18:51:15.732Z,10.00
2023-02-18T18:53:43.721Z,9.13
2023-02-18T18:56:13.059Z,7.88
2023-02-18T18:58:42.588Z,9.60
2023-02-18T19:01:15.864Z,8.75
2023-02-18T19:03:43.955Z,8.25
2023-02-18T19:06:11.840Z,7.90
2023-02-18T19:08:40.053Z,7.75
2023-02-18T19:11:08.370Z,11.35
2023-02-18T19:13:39.345Z,9.48
2023-02-18T19:16:14.494Z,10.00
2023-02-18T19:18:42.351Z,10.38
2023-02-18T19:21:12.295Z,10.43
2023-02-18T19:23:40.389Z,8.50
2023-02-18T19:26:08.697Z,8.13
2023-02-18T19:28:36.733Z,9.50
2023-02-18T19:31:10.710Z,8.25
2023-02-18T19:33:40.456Z,8.07
2023-02-18T19:36:09.891Z,7.40
2023-02-18T19:38:38.234Z,7.93
2023-02-18T19:41:10.258Z,10.07
2023-02-18T19:43:39.085Z,9.50
2023-02-18T19:46:11.481Z,8.57
2023-02-18T19:48:39.562Z,8.10
2023-02-18T19:51:08.833Z,7.25
2023-02-18T19:53:37.055Z,7.10
2023-02-18T19:56:07.446Z,8.45
2023-02-18T19:58:35.412Z,9.00
2023-02-18T20:01:03.600Z,10.05
2023-02-18T20:03:32.835Z,8.27
2023-02-18T20:06:01.084Z,7.88
2023-02-18T20:08:29.350Z,8.45
2023-02-18T20:10:57.856Z,7.22
2023-02-18T20:13:25.498Z,8.52
2023-02-18T20:15:53.333Z,8.52
2023-02-18T20:18:21.479Z,9.80
2023-02-18T20:20:51.364Z,9.88
2023-02-18T20:23:20.065Z,11.70
2023-02-18T20:25:47.825Z,12.13
2023-02-18T20:28:15.577Z,11.17
2023-02-18T20:30:44.134Z,9.65
2023-02-18T20:33:12.125Z,8.53
2023-02-18T20:35:39.850Z,8.40
2023-02-18T20:38:09.549Z,7.63
2023-02-18T20:40:37.297Z,6.85
2023-02-18T20:43:04.912Z,7.30
2023-02-18T20:45:33.610Z,5.50
2023-02-18T20:48:01.481Z,5.75
2023-02-18T20:50:29.422Z,6.10
2023-02-18T20:52:57.259Z,5.78
2023-02-18T20:55:26.362Z,5.25
2023-02-18T20:57:54.165Z,6.50
2023-02-18T21:00:22.583Z,4.80
2023-02-18T21:02:50.784Z,4.40
2023-02-18T21:05:19.607Z,5.15
2023-02-18T21:07:47.704Z,4.80
2023-02-18T21:10:15.511Z,5.65
2023-02-18T21:12:44.847Z,4.10
2023-02-18T21:15:12.597Z,3.63
2023-02-18T21:17:40.414Z,3.30
2023-02-18T21:20:08.960Z,3.60
2023-02-18T21:22:37.716Z,4.40
2023-02-18T21:25:06.546Z,3.50
2023-02-18T21:27:34.640Z,3.63
2023-02-18T21:30:04.513Z,3.45
2023-02-18T21:32:32.370Z,3.88
2023-02-18T21:35:00.576Z,4.07
2023-02-18T21:37:28.752Z,4.28
2023-02-18T21:39:56.445Z,4.25
2023-02-18T21:42:24.268Z,5.45
2023-02-18T21:44:51.959Z,5.95
2023-02-18T21:47:21.042Z,5.70
2023-02-18T21:49:49.065Z,6.50
2023-02-18T21:52:16.932Z,5.95
2023-02-18T21:54:45.453Z,5.60
2023-02-18T21:57:15.133Z,6.85
2023-02-18T21:59:46.543Z,7.90
2023-02-18T22:02:17.936Z,7.57
2023-02-18T22:04:48.065Z,7.80
2023-02-18T22:07:16.756Z,7.97
2023-02-18T22:09:46.659Z,7.15
2023-02-18T22:12:16.494Z,8.07
2023-02-18T22:14:44.722Z,8.23
2023-02-18T22:17:12.838Z,8.73
2023-02-18T22:19:41.514Z,8.63
2023-02-18T22:22:11.826Z,10.55
2023-02-18T22:24:39.709Z,10.75
2023-02-18T22:27:07.389Z,8.55
2023-02-18T22:29:35.059Z,8.65
2023-02-18T22:32:03.057Z,9.87
2023-02-18T22:34:31.307Z,9.18
2023-02-18T22:36:59.288Z,9.88
2023-02-18T22:39:28.439Z,10.20
2023-02-18T22:41:56.362Z,9.68
2023-02-18T22:44:26.133Z,9.05
2023-02-18T22:46:56.355Z,12.77
2023-02-18T22:49:24.398Z,11.75
2023-02-18T22:51:53.561Z,10.10
2023-02-18T22:54:21.934Z,10.00
2023-02-18T22:56:51.074Z,10.25
2023-02-18T22:59:19.873Z,13.35
2023-02-18T23:01:50.521Z,12.05
2023-02-18T23:04:20.397Z,11.88
2023-02-18T23:06:48.661Z,11.10
2023-02-18T23:09:18.738Z,12.15
2023-02-18T23:11:46.801Z,11.77
2023-02-18T23:14:22.754Z,11.25
2023-02-18T23:17:10.217Z,14.38
2023-02-18T23:19:38.543Z,12.43
2023-02-18T23:22:07.521Z,16.80
2023-02-18T23:24:36.010Z,16.13
2023-02-18T23:27:04.681Z,16.90
2023-02-18T23:29:34.080Z,17.85
2023-02-18T23:32:01.987Z,15.13
2023-02-18T23:34:30.077Z,16.25
2023-02-18T23:36:58.265Z,16.92
2023-02-18T23:39:26.523Z,17.17
2023-02-18T23:41:54.279Z,15.70
2023-02-18T23:44:24.037Z,17.73
2023-02-18T23:46:53.341Z,18.40
2023-02-18T23:49:23.019Z,16.30
2023-02-18T23:51:51.756Z,20.20
2023-02-18T23:54:19.941Z,18.45
2023-02-18T23:56:48.378Z,21.63
2023-02-18T23:59:16.221Z,19.98
